Time;durP1;ratioP1;P1;durP2;ratioP2;P2;SDS_P1;SDS_P2;PMS_P1;PMS_P2;Temp;Humidity;BMP_temperature;BMP_pressure;BME280_temperature;BME280_humidity;BME280_pressure;Samples;Min_cycle;Max_cycle;Signal;HPM_P1;HPM_P2
2022/09/20 00:01:09;;;;;;;2.40;0.95;;;;;;;;;;5022602;28;20045;-68
2022/09/20 00:03:42;;;;;;;1.90;0.90;;;;;;;;;;5022051;28;20055;-68
2022/09/20 00:06:10;;;;;;;1.10;0.80;;;;;;;;;;5022882;28;20056;-69
2022/09/20 00:08:35;;;;;;;0.88;0.88;;;;;;;;;;5022508;28;20049;-68
2022/09/20 00:11:09;;;;;;;5.63;0.90;;;;;;;;;;5021353;28;20060;-68
2022/09/20 00:13:37;;;;;;;1.80;0.80;;;;;;;;;;5021533;28;20053;-68
2022/09/20 00:16:08;;;;;;;6.00;1.08;;;;;;;;;;5022307;28;20942;-68
2022/09/20 00:18:33;;;;;;;1.55;0.80;;;;;;;;;;5022368;28;20049;-68
2022/09/20 00:20:59;;;;;;;1.10;0.68;;;;;;;;;;5022322;28;20053;-68
2022/09/20 00:23:24;;;;;;;1.80;1.08;;;;;;;;;;5021185;28;20045;-68
2022/09/20 00:25:54;;;;;;;1.95;0.93;;;;;;;;;;5022476;28;20823;-68
2022/09/20 00:28:20;;;;;;;4.45;1.00;;;;;;;;;;5001010;28;20049;-69
2022/09/20 00:30:45;;;;;;;1.38;0.68;;;;;;;;;;5021002;28;20042;-68
2022/09/20 00:33:10;;;;;;;1.85;0.73;;;;;;;;;;5021800;28;20064;-69
2022/09/20 00:35:36;;;;;;;1.75;0.90;;;;;;;;;;5020889;28;20198;-68
2022/09/20 00:38:01;;;;;;;2.10;0.70;;;;;;;;;;5022180;28;20058;-68
2022/09/20 00:40:27;;;;;;;0.70;0.70;;;;;;;;;;5021572;28;20039;-68
2022/09/20 00:42:52;;;;;;;1.35;0.80;;;;;;;;;;5022063;28;20052;-68
2022/09/20 00:45:22;;;;;;;2.25;0.60;;;;;;;;;;5020376;28;20053;-68
2022/09/20 00:47:53;;;;;;;3.20;1.10;;;;;;;;;;5021720;28;20042;-68
2022/09/20 00:50:25;;;;;;;2.13;0.70;;;;;;;;;;5021628;28;20053;-69
2022/09/20 00:53:01;;;;;;;3.42;0.68;;;;;;;;;;5021940;28;20046;-68
2022/09/20 00:55:27;;;;;;;0.70;0.70;;;;;;;;;;5021304;28;20576;-69
2022/09/20 00:57:53;;;;;;;1.10;0.80;;;;;;;;;;5021308;28;20089;-68
2022/09/20 01:00:20;;;;;;;2.38;1.08;;;;;;;;;;5000443;28;20054;-68
2022/09/20 01:02:52;;;;;;;1.30;0.70;;;;;;;;;;5021014;28;20156;-68
2022/09/20 01:05:18;;;;;;;1.38;0.93;;;;;;;;;;5016651;28;20091;-69
2022/09/20 01:07:47;;;;;;;2.40;1.00;;;;;;;;;;5019672;28;20069;-68
2022/09/20 01:10:13;;;;;;;1.35;1.25;;;;;;;;;;5019674;28;20037;-68
2022/09/20 01:12:39;;;;;;;1.02;0.90;;;;;;;;;;5019944;28;20535;-68
2022/09/20 01:15:07;;;;;;;1.67;1.00;;;;;;;;;;5020158;28;20041;-68
2022/09/20 01:17:36;;;;;;;0.88;0.80;;;;;;;;;;5020720;28;20184;-68
2022/09/20 01:20:13;;;;;;;1.20;0.70;;;;;;;;;;5000321;28;20054;-69
2022/09/20 01:22:57;;;;;;;1.60;0.82;;;;;;;;;;5001723;28;20065;-68
2022/09/20 01:25:48;;;;;;;1.17;0.82;;;;;;;;;;5015716;28;20050;-68
2022/09/20 01:28:15;;;;;;;1.20;0.75;;;;;;;;;;5020806;28;20051;-69
2022/09/20 01:30:46;;;;;;;3.78;1.00;;;;;;;;;;5020957;28;20095;-68
2022/09/20 01:33:26;;;;;;;1.70;0.80;;;;;;;;;;5020694;28;20060;-69
2022/09/20 01:35:53;;;;;;;1.10;1.00;;;;;;;;;;5020748;28;20060;-68
2022/09/20 01:38:33;;;;;;;1.05;0.82;;;;;;;;;;5019793;28;20183;-69
2022/09/20 01:41:29;;;;;;;1.42;0.80;;;;;;;;;;5020979;28;20049;-69
2022/09/20 01:44:09;;;;;;;0.70;0.70;;;;;;;;;;5002790;28;20049;-68
2022/09/20 01:46:36;;;;;;;0.90;0.73;;;;;;;;;;5020921;28;20555;-69
2022/09/20 01:49:20;;;;;;;4.40;0.98;;;;;;;;;;4999175;28;20084;-68
2022/09/20 01:52:24;;;;;;;1.15;0.95;;;;;;;;;;5000959;28;20050;-68
2022/09/20 01:55:29;;;;;;;4.80;0.88;;;;;;;;;;5020661;28;20046;-68
2022/09/20 01:58:22;;;;;;;7.70;1.30;;;;;;;;;;5003392;28;20102;-68
2022/09/20 02:01:12;;;;;;;2.22;0.80;;;;;;;;;;5020361;28;20494;-68
2022/09/20 02:03:43;;;;;;;5.60;1.13;;;;;;;;;;4985276;28;20080;-68
2022/09/20 02:06:34;;;;;;;1.23;0.70;;;;;;;;;;5020948;28;20115;-68
2022/09/20 02:09:37;;;;;;;3.50;1.20;;;;;;;;;;4999282;28;20903;-68
2022/09/20 02:12:15;;;;;;;0.98;0.80;;;;;;;;;;4995781;28;20076;-68
2022/09/20 02:14:54;;;;;;;6.20;1.58;;;;;;;;;;5020386;28;20406;-68
2022/09/20 02:17:25;;;;;;;1.90;1.27;;;;;;;;;;5019730;28;20049;-69
2022/09/20 02:20:10;;;;;;;1.20;0.98;;;;;;;;;;5019978;28;20064;-69
2022/09/20 02:23:04;;;;;;;0.90;0.90;;;;;;;;;;5019801;28;20046;-68
2022/09/20 02:25:43;;;;;;;3.08;0.90;;;;;;;;;;5019910;28;20132;-69
2022/09/20 02:28:11;;;;;;;2.70;1.02;;;;;;;;;;5020314;28;20057;-68
2022/09/20 02:31:07;;;;;;;2.88;1.20;;;;;;;;;;5019774;28;20497;-69
2022/09/20 02:33:35;;;;;;;2.67;0.90;;;;;;;;;;5019282;28;20057;-69
2022/09/20 02:36:07;;;;;;;1.05;0.82;;;;;;;;;;5020163;28;20057;-68
2022/09/20 02:38:48;;;;;;;2.78;0.98;;;;;;;;;;5020180;28;20080;-68
2022/09/20 02:41:35;;;;;;;2.28;1.05;;;;;;;;;;4998386;28;20095;-69
2022/09/20 02:44:09;;;;;;;1.42;1.15;;;;;;;;;;5014711;28;20046;-68
2022/09/20 02:46:41;;;;;;;4.07;0.90;;;;;;;;;;5018015;28;20103;-69
2022/09/20 02:49:28;;;;;;;1.23;1.05;;;;;;;;;;5020148;28;20551;-68
2022/09/20 02:52:03;;;;;;;2.90;0.90;;;;;;;;;;5005341;28;20131;-68
2022/09/20 02:54:50;;;;;;;2.35;0.90;;;;;;;;;;5023461;28;20053;-68
2022/09/20 02:57:32;;;;;;;2.25;0.93;;;;;;;;;;5023262;28;20099;-68
2022/09/20 03:00:08;;;;;;;1.10;0.93;;;;;;;;;;5024067;28;20549;-68
2022/09/20 03:02:50;;;;;;;1.30;1.20;;;;;;;;;;5003822;28;20050;-68
2022/09/20 03:05:46;;;;;;;2.25;1.00;;;;;;;;;;5021109;28;20454;-69
2022/09/20 03:08:14;;;;;;;2.83;1.00;;;;;;;;;;5023316;28;20053;-68
2022/09/20 03:10:53;;;;;;;1.52;0.75;;;;;;;;;;5023592;28;20049;-68
2022/09/20 03:13:49;;;;;;;3.53;0.90;;;;;;;;;;5020413;28;20076;-68
2022/09/20 03:16:38;;;;;;;1.52;0.90;;;;;;;;;;5022334;28;20072;-68
2022/09/20 03:19:34;;;;;;;2.85;0.90;;;;;;;;;;5023275;28;20431;-68
2022/09/20 03:22:09;;;;;;;3.67;1.05;;;;;;;;;;5007707;28;20160;-69
2022/09/20 03:24:56;;;;;;;1.88;1.08;;;;;;;;;;5023707;28;20045;-68
2022/09/20 03:27:24;;;;;;;3.38;1.00;;;;;;;;;;5021873;28;20048;-69
2022/09/20 03:30:20;;;;;;;2.60;1.00;;;;;;;;;;5023302;28;20064;-69
2022/09/20 03:32:59;;;;;;;5.40;0.85;;;;;;;;;;5022924;28;20099;-68
2022/09/20 03:35:53;;;;;;;4.65;0.98;;;;;;;;;;5022770;28;20041;-68
2022/09/20 03:38:43;;;;;;;2.35;1.10;;;;;;;;;;4994361;28;20054;-68
2022/09/20 03:41:24;;;;;;;1.23;1.10;;;;;;;;;;5001900;28;20042;-68
2022/09/20 03:43:55;;;;;;;5.72;1.05;;;;;;;;;;5003353;28;20053;-68
2022/09/20 03:46:25;;;;;;;1.88;1.23;;;;;;;;;;5023035;28;20617;-68
2022/09/20 03:51:28;;;;;;;3.05;1.38;;;;;;;;;;4979379;28;20137;-70
2022/09/20 03:54:20;;;;;;;5.10;1.10;;;;;;;;;;4983647;28;20145;-70
2022/09/20 03:57:04;;;;;;;2.60;1.30;;;;;;;;;;4983985;28;20149;-69
2022/09/20 03:59:44;;;;;;;4.45;1.55;;;;;;;;;;4982273;28;20572;-69
2022/09/20 04:02:23;;;;;;;2.67;1.17;;;;;;;;;;4982516;28;20050;-70
2022/09/20 04:04:59;;;;;;;3.22;1.10;;;;;;;;;;4998679;28;21101;-69
2022/09/20 04:07:50;;;;;;;3.92;1.23;;;;;;;;;;4983273;28;20056;-69
2022/09/20 04:10:34;;;;;;;2.45;1.25;;;;;;;;;;4982836;28;20050;-70
2022/09/20 04:13:37;;;;;;;3.28;1.40;;;;;;;;;;4983101;28;20108;-70
2022/09/20 04:16:21;;;;;;;3.60;1.13;;;;;;;;;;4928686;29;20065;-69
2022/09/20 04:18:56;;;;;;;3.25;1.23;;;;;;;;;;4979940;28;20063;-70
2022/09/20 04:21:33;;;;;;;1.15;1.00;;;;;;;;;;4982014;28;20053;-70
2022/09/20 04:23:58;;;;;;;1.40;1.25;;;;;;;;;;4983014;28;20080;-70
2022/09/20 04:26:45;;;;;;;3.75;1.20;;;;;;;;;;4983175;28;20093;-69
2022/09/20 04:29:30;;;;;;;4.50;1.40;;;;;;;;;;4982529;28;20038;-70
2022/09/20 04:32:14;;;;;;;3.28;1.17;;;;;;;;;;4982332;28;20081;-70
2022/09/20 04:37:37;;;;;;;1.57;1.47;;;;;;;;;;4979668;28;20097;-70
2022/09/20 04:40:30;;;;;;;4.72;1.30;;;;;;;;;;4981086;28;20050;-70
2022/09/20 04:43:12;;;;;;;3.42;1.25;;;;;;;;;;4982143;28;20097;-70
2022/09/20 04:45:58;;;;;;;2.20;1.10;;;;;;;;;;4982486;28;20145;-70
2022/09/20 04:48:37;;;;;;;2.20;1.30;;;;;;;;;;4983129;28;20124;-70
2022/09/20 04:51:25;;;;;;;2.83;1.23;;;;;;;;;;4999731;28;20050;-70
2022/09/20 04:54:25;;;;;;;1.80;1.17;;;;;;;;;;4970846;28;20050;-69
2022/09/20 04:57:18;;;;;;;1.42;1.02;;;;;;;;;;4987965;28;20049;-69
2022/09/20 05:00:09;;;;;;;4.22;1.50;;;;;;;;;;4973585;28;20051;-69
2022/09/20 05:03:06;;;;;;;1.43;1.23;;;;;;;;;;5000081;28;20342;-69
2022/09/20 05:06:10;;;;;;;2.72;1.25;;;;;;;;;;4998653;28;20053;-69
2022/09/20 05:08:58;;;;;;;4.93;1.20;;;;;;;;;;5001164;28;20096;-69
2022/09/20 05:11:48;;;;;;;4.00;1.48;;;;;;;;;;5001165;28;20052;-69
2022/09/20 05:14:55;;;;;;;2.40;1.17;;;;;;;;;;5001484;28;20045;-69
2022/09/20 05:17:37;;;;;;;2.22;1.17;;;;;;;;;;4983719;28;20037;-69
2022/09/20 05:20:33;;;;;;;3.20;1.20;;;;;;;;;;5001059;28;20107;-70
2022/09/20 05:23:22;;;;;;;3.95;1.40;;;;;;;;;;5000338;28;20055;-70
2022/09/20 05:26:01;;;;;;;4.78;1.35;;;;;;;;;;4983430;28;20050;-70
2022/09/20 05:29:20;;;;;;;2.90;1.60;;;;;;;;;;4999417;28;20049;-69
2022/09/20 05:31:55;;;;;;;3.28;1.60;;;;;;;;;;4885966;29;20059;-68
2022/09/20 05:34:33;;;;;;;2.45;1.40;;;;;;;;;;4985349;28;20053;-68
2022/09/20 05:37:09;;;;;;;4.40;1.33;;;;;;;;;;5001035;28;20077;-68
2022/09/20 05:39:44;;;;;;;1.92;1.45;;;;;;;;;;5000335;28;20049;-68
2022/09/20 05:42:48;;;;;;;1.88;1.40;;;;;;;;;;5000971;28;20390;-68
2022/09/20 05:45:31;;;;;;;3.53;1.33;;;;;;;;;;4988286;28;20136;-67
2022/09/20 05:48:09;;;;;;;5.30;1.50;;;;;;;;;;5001242;28;20045;-69
2022/09/20 05:50:52;;;;;;;4.63;1.30;;;;;;;;;;5000045;28;20046;-68
2022/09/20 05:53:38;;;;;;;2.72;1.75;;;;;;;;;;5000908;28;20062;-68
2022/09/20 05:56:13;;;;;;;1.95;1.25;;;;;;;;;;4983487;28;20060;-68
2022/09/20 05:58:47;;;;;;;3.63;1.38;;;;;;;;;;5001179;28;20049;-68
2022/09/20 06:01:34;;;;;;;2.33;1.50;;;;;;;;;;4999589;28;20049;-67
2022/09/20 06:04:20;;;;;;;2.05;1.10;;;;;;;;;;5000725;28;20045;-67
2022/09/20 06:07:16;;;;;;;6.82;1.42;;;;;;;;;;5001383;28;20107;-67
2022/09/20 06:10:12;;;;;;;1.95;1.23;;;;;;;;;;4982236;28;20077;-69
2022/09/20 06:13:08;;;;;;;2.95;1.40;;;;;;;;;;4999655;28;20072;-68
2022/09/20 06:15:58;;;;;;;3.88;1.38;;;;;;;;;;4993369;28;20987;-69
2022/09/20 06:18:30;;;;;;;5.75;1.60;;;;;;;;;;5000858;28;20096;-69
2022/09/20 06:21:07;;;;;;;3.95;1.40;;;;;;;;;;5000148;28;20068;-69
2022/09/20 06:23:35;;;;;;;2.30;1.40;;;;;;;;;;4999422;28;20053;-69
2022/09/20 06:26:13;;;;;;;2.95;1.30;;;;;;;;;;4982792;28;20056;-67
2022/09/20 06:28:42;;;;;;;1.85;1.45;;;;;;;;;;5000967;28;20164;-67
2022/09/20 06:31:10;;;;;;;1.48;1.15;;;;;;;;;;5000986;28;20079;-67
2022/09/20 06:34:03;;;;;;;2.63;1.50;;;;;;;;;;4999295;28;20052;-67
2022/09/20 06:42:43;;;;;;;3.97;1.40;;;;;;;;;;5000532;28;20157;-69
2022/09/20 06:45:09;;;;;;;4.60;1.23;;;;;;;;;;5000042;28;20941;-67
2022/09/20 06:47:35;;;;;;;1.80;1.52;;;;;;;;;;5000226;28;20099;-66
2022/09/20 06:50:00;;;;;;;7.28;1.30;;;;;;;;;;5000693;28;20046;-68
2022/09/20 06:52:26;;;;;;;4.38;1.27;;;;;;;;;;5000505;28;20421;-67
2022/09/20 06:54:54;;;;;;;1.98;1.30;;;;;;;;;;5001550;28;20076;-70
2022/09/20 06:57:26;;;;;;;2.35;1.55;;;;;;;;;;4999682;28;21063;-67
2022/09/20 06:59:51;;;;;;;3.20;1.20;;;;;;;;;;5001425;28;20045;-69
2022/09/20 07:02:17;;;;;;;1.45;1.10;;;;;;;;;;5000957;28;20391;-72
2022/09/20 07:04:43;;;;;;;3.85;1.40;;;;;;;;;;5001191;28;20085;-70
2022/09/20 07:07:16;;;;;;;4.20;1.52;;;;;;;;;;4999762;28;20046;-70
2022/09/20 07:09:42;;;;;;;2.50;1.52;;;;;;;;;;4966257;28;20103;-71
2022/09/20 07:12:09;;;;;;;5.95;2.00;;;;;;;;;;5000156;28;20050;-69
2022/09/20 07:14:35;;;;;;;4.32;2.15;;;;;;;;;;5000754;28;20057;-70
2022/09/20 07:17:00;;;;;;;9.45;2.33;;;;;;;;;;5000491;28;20045;-71
2022/09/20 07:19:25;;;;;;;5.88;1.92;;;;;;;;;;4998818;28;20093;-69
2022/09/20 07:21:51;;;;;;;2.90;2.10;;;;;;;;;;4999870;28;20494;-70
2022/09/20 07:24:16;;;;;;;3.22;1.90;;;;;;;;;;5000500;28;20045;-68
2022/09/20 07:26:57;;;;;;;3.97;2.03;;;;;;;;;;5000109;28;20038;-70
2022/09/20 07:29:23;;;;;;;6.47;2.45;;;;;;;;;;4998919;28;20046;-70
2022/09/20 07:31:49;;;;;;;4.75;2.25;;;;;;;;;;5000033;28;20077;-70
2022/09/20 07:34:17;;;;;;;9.23;2.88;;;;;;;;;;5000515;28;20097;-70
2022/09/20 07:36:42;;;;;;;4.47;2.28;;;;;;;;;;5000367;28;20060;-71
2022/09/20 07:39:08;;;;;;;4.45;2.35;;;;;;;;;;5003218;28;20049;-69
2022/09/20 07:41:33;;;;;;;3.80;1.88;;;;;;;;;;5002214;28;20053;-71
2022/09/20 07:44:19;;;;;;;4.80;1.70;;;;;;;;;;5003877;28;20085;-72
2022/09/20 07:46:47;;;;;;;6.05;2.22;;;;;;;;;;5003660;28;20046;-69
2022/09/20 07:49:13;;;;;;;2.63;2.13;;;;;;;;;;5002644;28;20042;-71
2022/09/20 07:51:38;;;;;;;3.13;2.13;;;;;;;;;;5002321;28;20382;-73
2022/09/20 07:54:03;;;;;;;2.40;2.20;;;;;;;;;;5003775;28;20671;-70
2022/09/20 07:56:29;;;;;;;4.50;2.50;;;;;;;;;;5003378;28;20053;-71
2022/09/20 07:58:54;;;;;;;7.85;2.22;;;;;;;;;;5003419;28;20049;-71
2022/09/20 08:01:21;;;;;;;2.95;2.10;;;;;;;;;;5001471;28;20065;-70
2022/09/20 08:03:47;;;;;;;7.80;2.50;;;;;;;;;;5003179;28;20046;-69
2022/09/20 08:06:17;;;;;;;5.40;2.70;;;;;;;;;;5003353;28;20080;-69
2022/09/20 08:08:43;;;;;;;5.57;2.13;;;;;;;;;;5003180;28;21008;-69
2022/09/20 08:11:14;;;;;;;5.40;1.98;;;;;;;;;;5003080;28;20046;-69
2022/09/20 08:13:51;;;;;;;4.78;2.15;;;;;;;;;;5001488;28;20053;-72
2022/09/20 08:16:17;;;;;;;2.88;2.10;;;;;;;;;;5003097;28;20057;-69
2022/09/20 08:18:57;;;;;;;5.15;2.50;;;;;;;;;;4985077;28;20049;-69
2022/09/20 08:21:30;;;;;;;4.25;2.22;;;;;;;;;;5002239;28;20056;-70
2022/09/20 08:23:56;;;;;;;3.00;2.40;;;;;;;;;;5002153;28;20486;-69
2022/09/20 08:26:23;;;;;;;4.43;2.50;;;;;;;;;;5002919;28;20127;-68
2022/09/20 08:28:56;;;;;;;4.25;2.63;;;;;;;;;;5002909;28;20607;-69
2022/09/20 08:31:25;;;;;;;5.15;3.10;;;;;;;;;;5002091;28;20053;-69
2022/09/20 08:33:51;;;;;;;7.90;2.90;;;;;;;;;;5003132;28;20050;-68
2022/09/20 08:36:23;;;;;;;6.35;2.97;;;;;;;;;;5002346;28;20620;-68
2022/09/20 08:38:49;;;;;;;3.03;2.60;;;;;;;;;;5002780;28;20053;-71
2022/09/20 08:41:20;;;;;;;7.95;3.03;;;;;;;;;;5001867;28;21023;-70
2022/09/20 08:44:12;;;;;;;7.03;3.17;;;;;;;;;;5002257;28;20191;-68
2022/09/20 08:46:46;;;;;;;6.93;3.05;;;;;;;;;;5000129;28;20037;-72
2022/09/20 08:49:23;;;;;;;5.95;2.80;;;;;;;;;;5001386;28;20076;-70
2022/09/20 08:51:49;;;;;;;6.05;3.35;;;;;;;;;;5001868;28;20072;-71
2022/09/20 08:54:15;;;;;;;3.67;2.80;;;;;;;;;;5002737;28;20099;-70
2022/09/20 08:56:45;;;;;;;7.07;2.83;;;;;;;;;;5001341;28;20900;-70
2022/09/20 08:59:19;;;;;;;3.97;2.28;;;;;;;;;;5001904;28;20041;-71
2022/09/20 09:01:49;;;;;;;4.15;2.55;;;;;;;;;;5002425;28;20458;-72
2022/09/20 09:04:22;;;;;;;11.75;2.70;;;;;;;;;;5002284;28;20133;-71
2022/09/20 09:06:51;;;;;;;6.00;2.67;;;;;;;;;;4985652;28;20046;-71
2022/09/20 09:09:22;;;;;;;4.53;2.63;;;;;;;;;;5004545;28;20383;-71
2022/09/20 09:11:48;;;;;;;7.10;2.80;;;;;;;;;;5007231;28;20057;-72
2022/09/20 09:17:20;;;;;;;7.80;3.22;;;;;;;;;;5001099;28;20038;-71
2022/09/20 09:20:05;;;;;;;5.53;2.95;;;;;;;;;;5001647;28;20083;-71
2022/09/20 09:22:35;;;;;;;10.02;2.90;;;;;;;;;;5001811;28;20073;-71
2022/09/20 09:25:09;;;;;;;2.60;1.90;;;;;;;;;;5001738;28;20589;-72
2022/09/20 09:27:35;;;;;;;5.65;2.72;;;;;;;;;;5001323;28;20080;-70
2022/09/20 09:30:01;;;;;;;5.20;2.42;;;;;;;;;;5000919;28;20085;-70
2022/09/20 09:32:31;;;;;;;7.00;2.67;;;;;;;;;;5001307;28;20081;-72
2022/09/20 09:35:29;;;;;;;7.93;2.70;;;;;;;;;;5001586;28;20073;-71
2022/09/20 09:37:59;;;;;;;7.40;2.33;;;;;;;;;;4985276;28;21186;-70
2022/09/20 09:40:26;;;;;;;5.05;2.88;;;;;;;;;;4986801;28;20532;-70
2022/09/20 09:42:58;;;;;;;5.65;2.70;;;;;;;;;;5001507;28;20076;-69
2022/09/20 09:45:37;;;;;;;7.43;2.55;;;;;;;;;;5001280;28;20481;-70
2022/09/20 09:48:20;;;;;;;3.28;1.92;;;;;;;;;;5001182;28;20064;-70
2022/09/20 09:50:46;;;;;;;;;;;;;;;;;;5001663;28;20085;-70
2022/09/20 09:53:23;;;;;;;5.72;2.10;;;;;;;;;;4999947;28;19935;-71
2022/09/20 09:56:13;;;;;;;9.30;2.35;;;;;;;;;;5001411;28;20080;-70
2022/09/20 09:59:00;;;;;;;6.88;2.40;;;;;;;;;;5001232;28;20568;-70
2022/09/20 10:01:45;;;;;;;3.33;1.58;;;;;;;;;;4982170;28;20041;-70
2022/09/20 10:04:24;;;;;;;4.97;2.92;;;;;;;;;;4999791;28;20046;-69
2022/09/20 10:07:09;;;;;;;2.45;1.92;;;;;;;;;;5000753;28;20515;-70
2022/09/20 10:09:55;;;;;;;5.45;2.17;;;;;;;;;;5000474;28;20417;-70
2022/09/20 10:12:46;;;;;;;7.05;2.38;;;;;;;;;;4990019;28;20053;-70
2022/09/20 10:15:22;;;;;;;4.10;2.15;;;;;;;;;;4999485;28;20121;-70
2022/09/20 10:18:30;;;;;;;5.03;1.80;;;;;;;;;;5000581;28;20058;-70
2022/09/20 10:20:58;;;;;;;4.45;1.65;;;;;;;;;;5000699;28;20100;-70
2022/09/20 10:23:43;;;;;;;2.67;1.45;;;;;;;;;;4999741;28;20045;-70
2022/09/20 10:26:31;;;;;;;1.70;1.00;;;;;;;;;;5000124;28;20046;-69
2022/09/20 10:29:28;;;;;;;2.97;1.40;;;;;;;;;;4963371;28;20153;-70
2022/09/20 10:32:05;;;;;;;4.65;1.23;;;;;;;;;;4983123;28;20134;-69
2022/09/20 10:34:49;;;;;;;3.45;1.08;;;;;;;;;;5000830;28;20049;-68
2022/09/20 10:37:53;;;;;;;1.58;1.00;;;;;;;;;;4981949;28;20046;-71
2022/09/20 10:43:46;;;;;;;2.65;1.23;;;;;;;;;;4999782;28;20053;-71
2022/09/20 10:46:16;;;;;;;2.33;1.45;;;;;;;;;;4988692;28;20041;-72
2022/09/20 10:48:50;;;;;;;9.50;1.88;;;;;;;;;;5000493;28;20048;-71
2022/09/20 10:51:44;;;;;;;3.40;1.20;;;;;;;;;;4999876;28;20100;-71
2022/09/20 10:54:32;;;;;;;6.63;1.50;;;;;;;;;;5000515;28;20050;-72
2022/09/20 10:57:15;;;;;;;4.03;1.30;;;;;;;;;;5000238;28;20064;-72
2022/09/20 10:59:45;;;;;;;6.50;1.73;;;;;;;;;;4999765;28;20128;-73
2022/09/20 11:02:11;;;;;;;5.50;1.98;;;;;;;;;;5000245;28;20486;-71
2022/09/20 11:04:42;;;;;;;1.50;1.10;;;;;;;;;;5000626;28;20050;-71
2022/09/20 11:07:20;;;;;;;5.00;1.30;;;;;;;;;;5000730;28;20045;-69
2022/09/20 11:09:57;;;;;;;2.75;1.20;;;;;;;;;;4979177;28;20046;-70
2022/09/20 11:12:41;;;;;;;3.38;0.88;;;;;;;;;;5003330;28;20046;-71
2022/09/20 11:15:31;;;;;;;2.67;1.10;;;;;;;;;;5003972;28;20522;-72
2022/09/20 11:18:22;;;;;;;6.90;1.33;;;;;;;;;;4976032;28;20077;-71
2022/09/20 11:20:58;;;;;;;2.28;0.80;;;;;;;;;;5000157;28;20046;-70
2022/09/20 11:23:34;;;;;;;2.47;0.65;;;;;;;;;;5003086;28;20057;-70
2022/09/20 11:26:07;;;;;;;2.22;1.05;;;;;;;;;;5004008;28;20497;-70
2022/09/20 11:28:52;;;;;;;0.80;0.80;;;;;;;;;;5003853;28;20045;-71
2022/09/20 11:31:25;;;;;;;4.15;1.02;;;;;;;;;;5002500;28;20498;-71
2022/09/20 11:34:20;;;;;;;2.75;1.80;;;;;;;;;;5003647;28;20054;-71
2022/09/20 11:37:01;;;;;;;2.30;0.77;;;;;;;;;;5003815;28;20058;-70
2022/09/20 11:39:36;;;;;;;3.83;0.82;;;;;;;;;;5003351;28;20073;-70
2022/09/20 11:42:04;;;;;;;5.22;1.10;;;;;;;;;;5002567;28;20046;-70
2022/09/20 11:44:30;;;;;;;1.13;1.02;;;;;;;;;;5003298;28;20057;-70
2022/09/20 11:47:34;;;;;;;2.55;1.10;;;;;;;;;;5005891;28;20073;-70
2022/09/20 11:50:31;;;;;;;4.55;1.13;;;;;;;;;;4983571;28;20533;-70
2022/09/20 11:53:24;;;;;;;1.88;1.38;;;;;;;;;;5002842;28;20046;-70
2022/09/20 11:55:57;;;;;;;4.22;1.30;;;;;;;;;;4986380;28;20514;-70
2022/09/20 11:58:24;;;;;;;2.30;1.17;;;;;;;;;;5005070;28;20165;-70
2022/09/20 12:00:53;;;;;;;3.33;1.23;;;;;;;;;;5004592;28;20046;-70
2022/09/20 12:03:32;;;;;;;4.20;1.30;;;;;;;;;;5002428;28;20087;-70
2022/09/20 12:06:03;;;;;;;5.97;1.42;;;;;;;;;;4986755;28;20445;-70
2022/09/20 12:08:39;;;;;;;2.95;1.00;;;;;;;;;;5003427;28;20045;-69
2022/09/20 12:11:11;;;;;;;2.20;1.23;;;;;;;;;;5003330;28;20056;-70
2022/09/20 12:13:39;;;;;;;3.15;1.52;;;;;;;;;;5001182;28;20084;-69
2022/09/20 12:16:14;;;;;;;6.22;1.17;;;;;;;;;;5002681;28;20041;-70
2022/09/20 12:19:00;;;;;;;3.40;1.42;;;;;;;;;;5003233;28;20071;-70
2022/09/20 12:21:27;;;;;;;3.13;1.20;;;;;;;;;;5002362;28;20045;-69
2022/09/20 12:23:52;;;;;;;3.08;1.63;;;;;;;;;;5002330;28;20060;-70
2022/09/20 12:26:20;;;;;;;4.78;1.63;;;;;;;;;;5001632;28;20064;-70
2022/09/20 12:28:48;;;;;;;2.90;1.23;;;;;;;;;;5002908;28;20532;-70
2022/09/20 12:31:28;;;;;;;3.80;1.50;;;;;;;;;;5002095;28;20045;-70
2022/09/20 12:33:56;;;;;;;3.33;1.33;;;;;;;;;;5002556;28;20125;-70
2022/09/20 12:36:21;;;;;;;1.83;1.00;;;;;;;;;;5002094;28;20137;-70
2022/09/20 12:38:54;;;;;;;2.80;1.10;;;;;;;;;;5002675;28;20148;-70
2022/09/20 12:41:19;;;;;;;2.70;1.23;;;;;;;;;;5001096;28;20107;-70
2022/09/20 12:44:02;;;;;;;4.95;1.40;;;;;;;;;;4981669;28;20083;-70
2022/09/20 12:46:39;;;;;;;3.45;1.25;;;;;;;;;;5001363;28;20050;-70
2022/09/20 12:55:28;;;;;;;3.55;1.30;;;;;;;;;;5000727;28;20146;-70
2022/09/20 12:58:21;;;;;;;4.00;1.25;;;;;;;;;;4975711;28;20899;-71
2022/09/20 13:00:57;;;;;;;2.22;0.73;;;;;;;;;;4997291;28;20116;-70
2022/09/20 13:03:36;;;;;;;2.30;1.00;;;;;;;;;;4999219;28;20403;-69
2022/09/20 13:08:42;;;;;;;4.32;1.10;;;;;;;;;;5000002;28;20054;-71
2022/09/20 13:11:32;;;;;;;2.85;1.30;;;;;;;;;;5000819;28;20049;-71
2022/09/20 13:14:01;;;;;;;4.45;1.27;;;;;;;;;;4984385;28;20492;-71
2022/09/20 13:16:38;;;;;;;1.60;0.90;;;;;;;;;;5000849;28;20516;-71
2022/09/20 13:19:27;;;;;;;9.80;1.38;;;;;;;;;;5000664;28;20050;-71
2022/09/20 13:21:59;;;;;;;5.05;1.23;;;;;;;;;;4982411;28;20486;-71
2022/09/20 13:24:27;;;;;;;2.45;1.00;;;;;;;;;;5000771;28;20049;-71
2022/09/20 13:27:00;;;;;;;4.22;1.33;;;;;;;;;;5000501;28;20041;-71
2022/09/20 13:29:41;;;;;;;3.65;1.10;;;;;;;;;;4998566;28;20042;-71
2022/09/20 13:32:21;;;;;;;2.13;0.80;;;;;;;;;;4998428;28;20046;-71
2022/09/20 13:35:09;;;;;;;1.38;0.95;;;;;;;;;;4983111;28;20060;-72
2022/09/20 13:37:36;;;;;;;7.68;1.33;;;;;;;;;;4998692;28;20054;-71
2022/09/20 13:40:04;;;;;;;3.03;1.08;;;;;;;;;;5000962;28;20081;-71
2022/09/20 13:42:34;;;;;;;6.57;1.05;;;;;;;;;;5000373;28;20053;-72
2022/09/20 13:45:02;;;;;;;4.93;0.90;;;;;;;;;;5001521;28;20049;-70
2022/09/20 13:47:30;;;;;;;5.50;1.27;;;;;;;;;;5000644;28;20038;-72
2022/09/20 13:50:16;;;;;;;4.40;1.20;;;;;;;;;;5000805;28;20045;-71
2022/09/20 13:52:47;;;;;;;3.72;1.02;;;;;;;;;;4999946;28;20045;-72
2022/09/20 13:55:32;;;;;;;2.72;1.08;;;;;;;;;;5000531;28;20042;-75
2022/09/20 13:58:07;;;;;;;4.85;1.10;;;;;;;;;;5000837;28;20136;-71
2022/09/20 14:00:36;;;;;;;5.57;0.88;;;;;;;;;;5001252;28;20050;-71
2022/09/20 14:03:03;;;;;;;2.72;1.02;;;;;;;;;;5001214;28;20053;-71
2022/09/20 14:05:29;;;;;;;2.75;1.00;;;;;;;;;;4999525;28;20131;-71
2022/09/20 14:07:56;;;;;;;2.42;1.10;;;;;;;;;;5000964;28;20065;-72
2022/09/20 14:10:33;;;;;;;4.72;1.00;;;;;;;;;;4983392;28;20048;-71
2022/09/20 14:13:01;;;;;;;3.65;1.00;;;;;;;;;;5000465;28;20486;-71
2022/09/20 14:15:36;;;;;;;3.08;0.85;;;;;;;;;;4999559;28;20054;-72
2022/09/20 14:18:03;;;;;;;1.50;0.93;;;;;;;;;;5000775;28;20057;-72
2022/09/20 14:20:29;;;;;;;2.10;1.10;;;;;;;;;;5000445;28;20052;-71
2022/09/20 14:22:54;;;;;;;2.40;1.00;;;;;;;;;;4999163;28;20041;-73
2022/09/20 14:25:24;;;;;;;4.55;1.25;;;;;;;;;;4999516;28;20064;-70
2022/09/20 14:28:05;;;;;;;3.50;1.20;;;;;;;;;;5000672;28;20593;-72
2022/09/20 14:30:35;;;;;;;4.93;1.13;;;;;;;;;;5000888;28;20042;-71
2022/09/20 14:33:02;;;;;;;6.82;1.20;;;;;;;;;;5000112;28;20042;-70
2022/09/20 14:35:28;;;;;;;3.63;1.05;;;;;;;;;;4998973;28;20108;-71
2022/09/20 14:38:00;;;;;;;2.38;1.00;;;;;;;;;;4993255;28;20058;-70
2022/09/20 14:40:29;;;;;;;4.88;1.10;;;;;;;;;;4979793;28;20058;-72
2022/09/20 14:43:05;;;;;;;2.25;1.23;;;;;;;;;;4997243;28;20045;-73
2022/09/20 14:45:38;;;;;;;3.75;1.10;;;;;;;;;;4996968;28;20649;-71
2022/09/20 14:48:25;;;;;;;3.78;1.23;;;;;;;;;;5000630;28;20053;-72
2022/09/20 14:51:11;;;;;;;2.30;0.77;;;;;;;;;;5001682;28;20046;-73
2022/09/20 14:53:37;;;;;;;2.58;1.08;;;;;;;;;;5000745;28;20125;-70
2022/09/20 14:56:05;;;;;;;1.90;1.20;;;;;;;;;;5001403;28;20128;-73
2022/09/20 14:58:32;;;;;;;3.95;1.02;;;;;;;;;;4983367;28;20105;-73
2022/09/20 15:01:05;;;;;;;2.38;1.10;;;;;;;;;;4997632;28;20144;-71
2022/09/20 15:03:33;;;;;;;3.88;1.13;;;;;;;;;;5000004;28;20076;-73
2022/09/20 15:05:59;;;;;;;4.05;1.42;;;;;;;;;;5002556;28;20053;-72
2022/09/20 15:08:24;;;;;;;6.90;1.52;;;;;;;;;;4983709;28;20057;-71
2022/09/20 15:10:50;;;;;;;7.70;1.23;;;;;;;;;;5001634;28;20624;-71
2022/09/20 15:13:16;;;;;;;3.05;1.17;;;;;;;;;;5000481;28;20050;-70
2022/09/20 15:15:43;;;;;;;2.83;1.05;;;;;;;;;;5002035;28;20502;-71
2022/09/20 15:18:33;;;;;;;4.35;1.30;;;;;;;;;;5001564;28;20403;-71
2022/09/20 15:20:59;;;;;;;2.45;1.10;;;;;;;;;;5001110;28;20037;-69
2022/09/20 15:23:25;;;;;;;6.90;0.93;;;;;;;;;;4983388;28;20048;-71
2022/09/20 15:25:52;;;;;;;2.80;1.10;;;;;;;;;;4984872;28;20049;-72
2022/09/20 15:28:18;;;;;;;1.67;0.85;;;;;;;;;;5002512;28;20107;-72
2022/09/20 15:30:45;;;;;;;6.40;1.13;;;;;;;;;;5002315;28;20046;-72
2022/09/20 15:33:11;;;;;;;3.63;0.88;;;;;;;;;;5001910;28;20045;-69
2022/09/20 15:35:38;;;;;;;2.22;1.10;;;;;;;;;;5002927;28;20132;-71
2022/09/20 15:38:04;;;;;;;3.55;1.90;;;;;;;;;;5002500;28;20073;-71
2022/09/20 15:40:31;;;;;;;5.72;1.65;;;;;;;;;;5003164;28;20157;-70
2022/09/20 15:42:58;;;;;;;4.45;1.30;;;;;;;;;;4996920;28;20056;-71
2022/09/20 15:45:25;;;;;;;2.47;1.30;;;;;;;;;;5002963;28;20053;-71
2022/09/20 15:47:54;;;;;;;3.00;1.25;;;;;;;;;;4996170;28;20053;-70
2022/09/20 15:50:23;;;;;;;5.32;0.88;;;;;;;;;;4982872;28;20577;-70
2022/09/20 15:52:52;;;;;;;2.50;1.00;;;;;;;;;;5001097;28;20053;-70
2022/09/20 15:55:18;;;;;;;2.67;1.15;;;;;;;;;;4999743;28;20050;-68
2022/09/20 15:57:44;;;;;;;4.43;1.33;;;;;;;;;;5003548;28;20140;-69
2022/09/20 16:00:10;;;;;;;2.08;1.48;;;;;;;;;;5005833;28;20045;-70
2022/09/20 16:02:35;;;;;;;4.68;1.67;;;;;;;;;;4999902;28;20045;-70